Time;durP1;ratioP1;P1;durP2;ratioP2;P2;SDS_P1;SDS_P2;PMS_P1;PMS_P2;Temp;Humidity;BMP_temperature;BMP_pressure;BME280_temperature;BME280_humidity;BME280_pressure;Samples;Min_cycle;Max_cycle;Signal;HPM_P1;HPM_P2
2022/01/23 00:00:40;;;;;;;15.13;7.37;;;;;;;-0.90;75.49;101115.33;1695436;84;25461;-71
2022/01/23 00:03:16;;;;;;;18.48;7.17;;;;;;;-0.91;75.39;101109.70;1694077;84;25616;-73
2022/01/23 00:05:41;;;;;;;17.48;7.47;;;;;;;-0.90;75.40;101111.83;1665336;84;28131;-72
2022/01/23 00:08:07;;;;;;;16.45;7.15;;;;;;;-0.88;75.41;101117.25;1693777;84;25651;-73
2022/01/23 00:10:34;;;;;;;15.63;7.60;;;;;;;-0.88;75.22;101112.45;1729073;83;25665;-73
2022/01/23 00:13:15;;;;;;;16.30;7.28;;;;;;;-0.87;75.14;101117.56;1729288;83;25503;-74
2022/01/23 00:18:23;;;;;;;18.20;8.15;;;;;;;-0.87;74.92;101110.08;1796138;78;27523;-73
2022/01/23 00:20:51;;;;;;;16.70;7.45;;;;;;;-0.86;74.88;101109.88;1823688;78;25835;-73
2022/01/23 00:23:32;;;;;;;16.50;7.25;;;;;;;-0.87;74.86;101112.25;1823795;78;25537;-73
2022/01/23 00:31:27;;;;;;;18.73;7.03;;;;;;;-0.84;74.80;101113.12;1823820;78;27537;-73
2022/01/23 00:33:54;;;;;;;19.50;6.62;;;;;;;-0.85;74.74;101115.50;1823735;78;25398;-73
2022/01/23 00:36:22;;;;;;;14.18;6.15;;;;;;;-0.85;74.74;101110.19;1823795;78;25513;-73
2022/01/23 00:38:49;;;;;;;15.93;6.70;;;;;;;-0.83;74.81;101112.63;1823768;78;25711;-72
2022/01/23 00:41:16;;;;;;;17.30;7.03;;;;;;;-0.84;74.75;101115.78;1820498;78;25577;-73
2022/01/23 00:43:48;;;;;;;15.88;6.55;;;;;;;-0.82;74.79;101120.39;1827506;78;28034;-72
2022/01/23 00:51:29;;;;;;;13.78;6.70;;;;;;;-0.82;74.74;101113.75;1829929;78;26056;-73
2022/01/23 00:53:59;;;;;;;13.93;5.97;;;;;;;-0.81;74.69;101114.56;1829972;78;25431;-72
2022/01/23 00:56:26;;;;;;;18.65;7.40;;;;;;;-0.81;74.71;101112.70;1830052;78;27502;-72
2022/01/23 00:58:53;;;;;;;18.73;6.62;;;;;;;-0.81;74.73;101122.53;1829851;78;25640;-73
2022/01/23 01:01:20;;;;;;;12.73;6.00;;;;;;;-0.80;74.85;101114.84;1829810;78;25426;-73
2022/01/23 01:03:48;;;;;;;14.93;6.75;;;;;;;-0.79;74.87;101111.97;1829839;77;25549;-72
2022/01/23 01:06:17;;;;;;;15.40;6.35;;;;;;;-0.80;74.78;101110.36;1829887;78;25540;-72
2022/01/23 01:08:46;;;;;;;14.60;6.17;;;;;;;-0.82;74.85;101107.11;1830058;78;27439;-72
2022/01/23 01:16:53;;;;;;;13.50;6.42;;;;;;;-0.80;74.95;101117.50;1829990;78;25597;-73
2022/01/23 01:33:12;;;;;;;14.50;7.25;;;;;;;-0.75;75.07;101132.28;1829907;78;25438;-72
2022/01/23 01:35:29;;;;;;;14.05;6.15;;;;;;;-0.74;75.12;101136.58;1827725;78;27456;-72
2022/01/23 01:37:52;;;;;;;11.12;5.78;;;;;;;-0.74;75.05;101138.44;1829579;77;25592;-73
2022/01/23 01:40:21;;;;;;;12.90;6.55;;;;;;;-0.73;75.20;101140.88;1829959;78;25593;-73
2022/01/23 01:42:48;;;;;;;15.13;6.80;;;;;;;-0.74;75.15;101132.59;1829670;78;25369;-73
2022/01/23 01:45:25;;;;;;;13.55;7.15;;;;;;;-0.73;75.13;101144.03;1829935;77;25609;-72
2022/01/23 01:47:56;;;;;;;22.60;6.80;;;;;;;-0.74;75.17;101138.44;1829952;77;27525;-73
2022/01/23 01:50:23;;;;;;;14.58;7.33;;;;;;;-0.73;75.17;101141.38;1829276;78;25683;-73
2022/01/23 01:52:50;;;;;;;14.73;6.55;;;;;;;-0.74;75.17;101135.25;1813690;78;25396;-73
2022/01/23 01:55:25;;;;;;;16.35;7.08;;;;;;;-0.75;75.19;101136.27;1829846;78;25568;-73
2022/01/23 01:57:55;;;;;;;15.80;7.15;;;;;;;-0.78;75.28;101133.54;1829389;77;25576;-73
2022/01/23 02:00:45;;;;;;;15.68;6.30;;;;;;;-0.78;75.26;101137.52;1829920;77;27767;-72
2022/01/23 02:03:25;;;;;;;14.55;6.03;;;;;;;-0.77;75.27;101133.02;1829042;77;25443;-73
2022/01/23 02:08:27;;;;;;;9.78;5.80;;;;;;;-0.80;75.32;101143.56;1829846;78;25832;-74
2022/01/23 02:11:05;;;;;;;15.28;6.87;;;;;;;-0.80;75.35;101133.44;1829879;77;25375;-73
2022/01/23 02:13:38;;;;;;;18.67;7.40;;;;;;;-0.80;75.41;101138.25;1828920;77;27473;-73
2022/01/23 02:24:08;;;;;;;13.95;6.67;;;;;;;-0.81;75.44;101132.63;1813661;78;25438;-74
2022/01/23 02:51:56;;;;;;;13.70;5.60;;;;;;;-0.80;75.86;101162.16;1830681;78;25177;-73
2022/01/23 02:56:49;;;;;;;11.43;5.90;;;;;;;-0.78;75.86;101169.92;1829888;77;25656;-73
2022/01/23 02:59:30;;;;;;;19.02;7.80;;;;;;;-0.78;75.92;101168.08;1829783;77;25368;-74
2022/01/23 03:02:08;;;;;;;18.48;6.97;;;;;;;-0.76;76.01;101175.31;1829201;77;26121;-73
2022/01/23 03:04:32;;;;;;;12.40;5.83;;;;;;;-0.74;76.03;101176.95;1829184;77;25635;-74
2022/01/23 03:29:02;;;;;;;10.03;5.03;;;;;;;-0.87;76.27;101230.45;1829789;78;25506;-72
2022/01/23 03:31:20;;;;;;;14.90;5.70;;;;;;;-0.87;76.20;101233.60;1827542;78;25540;-73
2022/01/23 03:33:39;;;;;;;9.28;5.17;;;;;;;-0.87;76.34;101231.78;1828456;77;28129;-73
2022/01/23 03:36:05;;;;;;;11.90;5.92;;;;;;;-0.87;76.42;101229.62;1830039;78;25558;-74
2022/01/23 03:38:32;;;;;;;13.13;5.60;;;;;;;-0.88;76.47;101239.44;1827375;78;25592;-73
2022/01/23 03:40:58;;;;;;;17.32;6.33;;;;;;;-0.86;76.48;101241.36;1829843;77;26259;-74
2022/01/23 03:43:31;;;;;;;15.13;6.65;;;;;;;-0.86;76.49;101241.36;1829427;78;25598;-73
2022/01/23 03:50:53;;;;;;;11.25;4.55;;;;;;;-0.83;76.51;101248.11;1803068;78;25457;-73
2022/01/23 03:53:20;;;;;;;19.07;8.68;;;;;;;-0.83;76.51;101251.58;1823751;78;26092;-73
2022/01/23 03:55:48;;;;;;;16.48;7.35;;;;;;;-0.82;76.58;101254.55;1823853;78;25447;-73
2022/01/23 03:58:14;;;;;;;13.85;5.42;;;;;;;-0.81;76.60;101260.67;1823929;78;27514;-73
2022/01/23 04:00:41;;;;;;;11.03;5.25;;;;;;;-0.81;76.63;101262.80;1823751;78;25654;-73
2022/01/23 04:03:07;;;;;;;14.35;5.37;;;;;;;-0.80;76.68;101255.15;1823882;78;25628;-72
2022/01/23 04:05:33;;;;;;;10.78;5.42;;;;;;;-0.79;76.68;101257.28;1823868;78;25538;-72
2022/01/23 04:08:00;;;;;;;8.25;4.45;;;;;;;-0.79;76.64;101258.09;1823932;78;25554;-73
2022/01/23 04:10:26;;;;;;;14.00;5.90;;;;;;;-0.76;76.69;101268.83;1803225;78;27587;-72
2022/01/23 04:12:57;;;;;;;10.72;5.33;;;;;;;-0.76;76.67;101270.96;1820522;78;25585;-73
2022/01/23 04:15:41;;;;;;;13.68;5.05;;;;;;;-0.77;76.66;101277.31;1823514;78;25596;-73
2022/01/23 04:20:42;;;;;;;10.78;5.35;;;;;;;-0.74;76.72;101273.41;1823806;78;25585;-73
2022/01/23 04:34:22;;;;;;;10.45;4.40;;;;;;;-0.71;76.79;101273.00;1823861;78;25577;-73
2022/01/23 05:02:00;;;;;;;11.73;5.20;;;;;;;-0.69;76.81;101293.53;1823794;78;25352;-73
2022/01/23 05:04:18;;;;;;;10.55;4.30;;;;;;;-0.71;76.78;101287.61;1821914;78;27522;-72
2022/01/23 05:06:47;;;;;;;12.30;5.30;;;;;;;-0.71;76.77;101285.48;1823423;78;25710;-72
2022/01/23 05:09:14;;;;;;;7.95;4.97;;;;;;;-0.72;76.76;101295.27;1823652;78;25664;-72
2022/01/23 05:11:49;;;;;;;9.95;5.08;;;;;;;-0.73;76.70;101300.30;1823829;78;25474;-73
2022/01/23 05:14:11;;;;;;;10.70;4.80;;;;;;;-0.74;76.71;101311.94;1823223;78;25411;-72
2022/01/23 05:16:38;;;;;;;11.35;5.20;;;;;;;-0.76;76.76;101309.48;1823788;78;27409;-72
2022/01/23 05:19:05;;;;;;;13.10;5.22;;;;;;;-0.78;76.79;101313.39;1823682;78;25819;-73
2022/01/23 05:24:21;;;;;;;9.85;4.40;;;;;;;-0.76;76.91;101321.96;1806362;78;25628;-73
2022/01/23 05:26:46;;;;;;;8.80;4.65;;;;;;;-0.76;76.96;101325.95;1823647;78;25394;-72
2022/01/23 05:29:14;;;;;;;15.68;5.15;;;;;;;-0.76;77.00;101330.74;1823779;78;27464;-72
2022/01/23 05:31:42;;;;;;;10.55;5.12;;;;;;;-0.75;77.01;101324.91;1823671;78;25673;-72
2022/01/23 05:34:08;;;;;;;10.55;4.85;;;;;;;-0.75;77.08;101318.27;1823820;78;25616;-73
2022/01/23 05:36:35;;;;;;;9.33;4.62;;;;;;;-0.74;77.10;101331.06;1823919;78;26269;-73
2022/01/23 05:39:01;;;;;;;9.43;4.97;;;;;;;-0.73;76.99;101335.33;1824185;78;25433;-73
2022/01/23 05:41:27;;;;;;;9.78;4.50;;;;;;;-0.73;77.04;101334.00;1826167;78;27513;-72
2022/01/23 05:43:54;;;;;;;11.70;5.95;;;;;;;-0.74;77.04;101339.84;1825945;78;25206;-72
2022/01/23 05:46:20;;;;;;;22.15;9.03;;;;;;;-0.74;77.18;101337.70;1822075;78;25399;-73
2022/01/23 05:48:47;;;;;;;18.50;8.15;;;;;;;-0.75;77.18;101336.86;1824725;78;25520;-73
2022/01/23 05:51:13;;;;;;;11.30;5.53;;;;;;;-0.74;77.21;101336.38;1823868;78;25608;-73
2022/01/23 05:53:40;;;;;;;12.75;5.58;;;;;;;-0.75;77.19;101342.17;1823749;78;28111;-73
2022/01/23 05:56:06;;;;;;;13.05;6.47;;;;;;;-0.74;77.12;101349.14;1823715;78;25521;-73
2022/01/23 05:58:33;;;;;;;12.60;6.42;;;;;;;-0.74;77.11;101352.31;1803310;78;25416;-73
2022/01/23 06:01:00;;;;;;;11.22;4.55;;;;;;;-0.74;76.83;101358.95;1823754;78;25741;-74
2022/01/23 06:03:26;;;;;;;13.40;5.42;;;;;;;-0.75;76.93;101368.75;1823729;78;25582;-74
2022/01/23 06:05:54;;;;;;;11.00;4.72;;;;;;;-0.78;76.84;101375.83;1823752;78;27508;-73
2022/01/23 06:08:23;;;;;;;6.33;3.40;;;;;;;-0.85;76.56;101374.50;1823631;78;25787;-74
2022/01/23 06:10:59;;;;;;;8.88;3.85;;;;;;;-0.89;76.12;101385.22;1823685;78;25596;-74
2022/01/23 06:13:25;;;;;;;8.70;3.60;;;;;;;-0.95;75.93;101390.85;1822713;78;25605;-74
2022/01/23 06:15:55;;;;;;;7.60;3.57;;;;;;;-0.99;75.81;101399.42;1823985;78;25526;-73
2022/01/23 06:18:21;;;;;;;5.75;3.20;;;;;;;-1.04;75.70;101396.56;1823863;78;27481;-73
2022/01/23 06:20:48;;;;;;;14.35;6.70;;;;;;;-1.07;75.64;101403.61;1823533;78;25644;-73
2022/01/23 06:23:15;;;;;;;11.90;4.90;;;;;;;-1.11;75.61;101395.75;1823720;78;25372;-73
2022/01/23 06:25:47;;;;;;;11.63;4.58;;;;;;;-1.16;75.61;101390.56;1823653;78;26106;-73
2022/01/23 06:28:35;;;;;;;7.78;4.40;;;;;;;-1.17;75.69;101396.88;1823752;78;25644;-74
2022/01/23 06:31:01;;;;;;;7.25;3.90;;;;;;;-1.18;75.64;101401.06;1823700;78;27681;-73
2022/01/23 06:33:29;;;;;;;8.83;5.22;;;;;;;-1.19;75.76;101407.38;1823619;78;25368;-74
2022/01/23 06:35:56;;;;;;;9.43;5.62;;;;;;;-1.21;75.78;101413.41;1823716;78;25436;-72
2022/01/23 06:38:23;;;;;;;10.25;5.97;;;;;;;-1.22;75.73;101412.60;1823663;78;25593;-73
2022/01/23 06:40:51;;;;;;;10.28;5.55;;;;;;;-1.25;75.38;101420.97;1823678;78;25458;-73
2022/01/23 06:43:17;;;;;;;8.60;5.00;;;;;;;-1.28;75.24;101424.54;1823765;78;27388;-72
2022/01/23 06:45:44;;;;;;;8.85;4.62;;;;;;;-1.30;75.08;101428.72;1827377;77;25898;-73
2022/01/23 06:48:10;;;;;;;6.30;3.83;;;;;;;-1.33;75.00;101430.45;1829925;77;25533;-73
2022/01/23 06:50:36;;;;;;;8.35;3.55;;;;;;;-1.36;74.88;101434.86;1829795;77;25529;-73
2022/01/23 06:53:03;;;;;;;8.10;3.70;;;;;;;-1.39;74.79;101441.37;1829892;77;25375;-73
2022/01/23 06:55:29;;;;;;;7.65;3.27;;;;;;;-1.38;74.91;101435.55;1829906;77;27548;-72
2022/01/23 06:57:55;;;;;;;8.08;3.72;;;;;;;-1.40;74.74;101452.99;1829779;78;25378;-73
2022/01/23 07:00:22;;;;;;;6.20;3.83;;;;;;;-1.40;74.90;101449.02;1829888;77;25569;-73
2022/01/23 07:02:49;;;;;;;5.28;2.85;;;;;;;-1.37;74.95;101459.75;1829743;77;25590;-73
2022/01/23 07:05:15;;;;;;;9.35;3.20;;;;;;;-1.37;74.79;101466.39;1829929;78;25471;-72
2022/01/23 07:07:42;;;;;;;6.97;3.65;;;;;;;-1.33;75.25;101471.11;1829957;77;27539;-73
2022/01/23 07:10:09;;;;;;;6.62;3.72;;;;;;;-1.25;75.24;101475.39;1829840;78;25485;-72
2022/01/23 07:12:36;;;;;;;7.50;3.87;;;;;;;-1.17;75.51;101485.83;1829952;78;25428;-72
2022/01/23 07:15:03;;;;;;;6.62;3.27;;;;;;;-1.10;75.17;101492.48;1829928;78;25527;-72
2022/01/23 07:17:29;;;;;;;6.40;3.60;;;;;;;-1.06;74.90;101496.36;1829990;77;25522;-74
2022/01/23 07:19:56;;;;;;;7.05;3.62;;;;;;;-0.99;74.67;101510.98;1796918;78;27388;-73
2022/01/23 07:22:22;;;;;;;8.53;4.60;;;;;;;-0.94;74.47;101509.86;1829854;78;25365;-72
2022/01/23 07:24:48;;;;;;;10.23;4.97;;;;;;;-0.89;74.37;101510.59;1829899;77;25380;-72
2022/01/23 07:27:19;;;;;;;9.05;5.22;;;;;;;-0.85;74.16;101506.00;1829931;78;26047;-73
2022/01/23 07:29:44;;;;;;;13.98;5.92;;;;;;;-0.79;74.17;101513.66;1829694;77;25520;-73
2022/01/23 07:32:11;;;;;;;11.55;6.20;;;;;;;-0.73;74.03;101508.88;1829931;77;28053;-72
2022/01/23 07:34:38;;;;;;;14.15;6.92;;;;;;;-0.67;74.15;101508.05;1829855;78;25824;-73
2022/01/23 07:37:05;;;;;;;15.25;7.20;;;;;;;-0.59;73.91;101519.00;1829937;78;25408;-73
2022/01/23 07:39:32;;;;;;;24.57;12.53;;;;;;;-0.59;73.29;101517.67;1829911;77;25530;-72
2022/01/23 07:41:58;;;;;;;14.30;8.23;;;;;;;-0.61;72.95;101518.39;1829897;77;25454;-73
2022/01/23 07:44:25;;;;;;;12.25;6.65;;;;;;;-0.62;72.73;101527.38;1829889;78;28134;-73
2022/01/23 07:46:51;;;;;;;11.50;6.33;;;;;;;-0.64;72.63;101526.24;1829748;77;25366;-72
2022/01/23 07:49:18;;;;;;;13.72;6.87;;;;;;;-0.65;72.46;101533.09;1829885;78;25598;-72
2022/01/23 07:51:45;;;;;;;10.60;6.45;;;;;;;-0.70;72.18;101538.20;1829845;78;25561;-72
2022/01/23 07:54:12;;;;;;;11.20;6.53;;;;;;;-0.68;72.25;101549.44;1813758;78;25545;-73
2022/01/23 07:56:42;;;;;;;11.20;6.95;;;;;;;-0.65;72.57;101556.48;1829909;78;27444;-73
2022/01/23 07:59:07;;;;;;;9.55;5.83;;;;;;;-0.57;72.62;101562.13;1829804;77;25591;-73
2022/01/23 08:01:36;;;;;;;9.45;5.70;;;;;;;-0.50;72.62;101574.91;1830003;78;25557;-73
2022/01/23 08:04:02;;;;;;;7.85;5.67;;;;;;;-0.39;73.08;101574.31;1813640;78;26040;-73
2022/01/23 08:06:32;;;;;;;13.72;6.60;;;;;;;-0.15;73.50;101582.69;1830050;78;25607;-74
2022/01/23 08:08:57;;;;;;;9.90;5.90;;;;;;;0.27;75.62;101583.22;1829666;77;27741;-74
2022/01/23 08:11:23;;;;;;;11.45;6.37;;;;;;;0.92;76.38;101593.86;1828833;78;25651;-75
2022/01/23 08:13:50;;;;;;;11.80;6.15;;;;;;;1.51;76.11;101590.22;1828503;78;25643;-74
2022/01/23 08:16:16;;;;;;;11.05;5.85;;;;;;;1.86;73.34;101588.70;1829241;77;26050;-74
2022/01/23 08:18:43;;;;;;;9.78;5.80;;;;;;;2.31;73.57;101588.17;1814478;78;25663;-73
2022/01/23 08:21:09;;;;;;;6.15;4.75;;;;;;;3.07;73.34;101592.71;1812856;78;27464;-73
2022/01/23 08:23:38;;;;;;;7.00;4.83;;;;;;;3.60;71.75;101595.13;1811448;78;25716;-73
2022/01/23 08:26:05;;;;;;;10.72;4.72;;;;;;;4.28;71.23;101587.85;1811665;78;25701;-74
2022/01/23 08:28:32;;;;;;;5.87;3.33;;;;;;;4.95;69.76;101589.73;1803703;77;25632;-73
2022/01/23 08:30:59;;;;;;;5.50;3.55;;;;;;;5.47;67.73;101594.95;1797208;79;25602;-74
2022/01/23 08:33:25;;;;;;;6.97;4.25;;;;;;;5.89;67.01;101603.13;1797253;79;28022;-74
2022/01/23 08:35:56;;;;;;;6.47;4.00;;;;;;;6.40;66.07;101605.77;1797080;79;25573;-75
2022/01/23 08:38:20;;;;;;;9.95;4.72;;;;;;;6.85;64.17;101611.45;1797018;79;25655;-75
2022/01/23 08:40:58;;;;;;;12.10;6.87;;;;;;;7.11;62.63;101618.71;1797223;79;26050;-75
2022/01/23 08:43:17;;;;;;;26.40;13.70;;;;;;;7.36;62.27;101622.74;1796100;79;25379;-75
2022/01/23 08:45:45;;;;;;;7.08;3.52;;;;;;;7.81;61.52;101619.34;1797111;79;27633;-76
2022/01/23 08:48:13;;;;;;;5.47;3.55;;;;;;;7.92;58.95;101632.38;1797146;79;25607;-76
2022/01/23 08:50:40;;;;;;;6.17;3.75;;;;;;;7.80;57.66;101637.95;1797188;79;25603;-74
2022/01/23 08:53:06;;;;;;;5.72;3.42;;;;;;;7.64;56.73;101636.47;1797184;79;25479;-76
2022/01/23 08:55:33;;;;;;;6.95;3.55;;;;;;;7.67;57.04;101639.17;1797286;79;25548;-76
2022/01/23 08:58:00;;;;;;;4.20;3.20;;;;;;;7.89;56.93;101639.63;1807922;77;27527;-77
2022/01/23 09:00:27;;;;;;;11.28;3.62;;;;;;;8.02;56.09;101639.99;1801362;78;25610;-76
2022/01/23 09:02:55;;;;;;;5.00;3.42;;;;;;;8.07;54.84;101655.39;1829574;77;25598;-77
2022/01/23 09:05:23;;;;;;;6.35;4.00;;;;;;;7.72;53.95;101659.95;1829469;78;26063;-77
2022/01/23 09:07:49;;;;;;;5.97;3.42;;;;;;;7.50;53.41;101658.14;1829684;78;25508;-76
2022/01/23 09:10:24;;;;;;;5.12;3.58;;;;;;;6.96;52.92;101667.51;1829552;78;28327;-76
2022/01/23 09:12:58;;;;;;;8.03;3.98;;;;;;;6.63;53.19;101662.00;1828759;77;25615;-77
2022/01/23 09:15:13;;;;;;;6.35;3.60;;;;;;;6.25;52.87;101667.66;1813353;78;25457;-77
2022/01/23 09:17:39;;;;;;;5.78;3.83;;;;;;;6.14;53.71;101667.20;1813479;78;25590;-77
2022/01/23 09:20:06;;;;;;;7.80;3.87;;;;;;;5.94;53.33;101667.66;1827079;78;25669;-76
2022/01/23 09:22:33;;;;;;;5.90;3.75;;;;;;;5.86;54.07;101674.80;1829422;78;28159;-77
2022/01/23 09:25:00;;;;;;;5.42;4.10;;;;;;;6.12;54.24;101672.02;1829361;78;25704;-77
2022/01/23 09:27:29;;;;;;;6.00;3.77;;;;;;;6.03;53.77;101672.12;1829848;77;25577;-77
2022/01/23 09:30:05;;;;;;;6.03;4.12;;;;;;;6.36;54.67;101677.48;1829964;78;25632;-77
2022/01/23 09:32:25;;;;;;;7.00;3.73;;;;;;;6.66;54.79;101678.98;1831050;77;25745;-77
2022/01/23 09:34:52;;;;;;;8.43;4.42;;;;;;;6.79;53.83;101683.16;1832745;77;27425;-77
2022/01/23 09:37:19;;;;;;;11.43;5.20;;;;;;;7.02;53.30;101684.81;1830571;77;25594;-77
2022/01/23 09:39:51;;;;;;;7.75;5.10;;;;;;;7.16;53.03;101690.62;1829655;78;25676;-76
2022/01/23 09:42:36;;;;;;;7.95;4.65;;;;;;;7.40;52.65;101689.80;1829573;78;25613;-77
2022/01/23 09:45:09;;;;;;;8.28;5.17;;;;;;;7.91;53.29;101685.43;1782392;80;25509;-77
2022/01/23 09:47:38;;;;;;;5.92;3.95;;;;;;;8.65;53.21;101683.83;1780352;80;27627;-78
2022/01/23 09:50:07;;;;;;;6.05;4.15;;;;;;;9.18;51.26;101686.47;1780439;80;25639;-77
2022/01/23 09:52:35;;;;;;;13.25;8.08;;;;;;;9.63;50.25;101688.98;1780660;80;25498;-77
2022/01/23 09:55:11;;;;;;;8.83;5.50;;;;;;;9.46;48.91;101689.77;1755111;80;25670;-77
2022/01/23 09:57:43;;;;;;;5.90;4.45;;;;;;;9.12;48.24;101684.81;1780440;80;25646;-77
2022/01/23 10:00:18;;;;;;;10.70;5.75;;;;;;;8.57;47.45;101685.12;1754372;80;27466;-76
2022/01/23 10:02:50;;;;;;;7.12;4.40;;;;;;;8.14;47.96;101680.75;1736087;80;25738;-76
2022/01/23 10:05:15;;;;;;;8.15;5.30;;;;;;;7.85;47.25;101676.50;1778937;80;25520;-76
2022/01/23 10:07:43;;;;;;;8.90;4.75;;;;;;;7.52;47.48;101680.77;1780231;80;26104;-77
2022/01/23 10:10:24;;;;;;;6.72;4.30;;;;;;;7.95;48.79;101679.83;1753280;80;25829;-78
2022/01/23 10:12:54;;;;;;;7.92;4.62;;;;;;;9.31;49.26;101671.13;1771296;79;27467;-76
2022/01/23 10:15:27;;;;;;;6.53;4.60;;;;;;;9.68;47.07;101678.73;1762123;80;25821;-79
2022/01/23 10:17:55;;;;;;;8.60;4.67;;;;;;;9.23;46.15;101676.20;1749549;82;25721;-77
2022/01/23 10:20:23;;;;;;;8.63;4.72;;;;;;;8.87;45.92;101678.78;1749296;82;25697;-77
2022/01/23 10:22:52;;;;;;;5.87;4.83;;;;;;;8.67;45.96;101675.47;1799882;77;25546;-78
2022/01/23 10:25:23;;;;;;;8.58;4.90;;;;;;;9.91;47.20;101678.20;1781285;79;27464;-76
2022/01/23 10:28:09;;;;;;;7.08;4.40;;;;;;;10.77;45.98;101681.05;1810180;79;25543;-75
2022/01/23 10:30:45;;;;;;;6.78;4.62;;;;;;;11.45;45.79;101685.05;1810238;79;25565;-74
2022/01/23 10:33:20;;;;;;;5.90;4.45;;;;;;;11.78;44.66;101687.55;1809919;79;25429;-74
2022/01/23 10:36:09;;;;;;;6.40;4.55;;;;;;;12.52;44.16;101673.86;1810325;79;25587;-73
2022/01/23 10:39:01;;;;;;;5.97;4.40;;;;;;;12.69;42.57;101680.19;1810176;79;27465;-74
2022/01/23 10:41:45;;;;;;;6.53;4.50;;;;;;;12.19;41.95;101684.23;1809956;79;25712;-75
2022/01/23 10:49:54;;;;;;;5.83;4.00;;;;;;;13.83;41.23;101682.99;1740320;82;25726;-73
2022/01/23 10:52:29;;;;;;;5.90;3.90;;;;;;;14.41;40.47;101682.27;1740260;82;28135;-73
2022/01/23 10:55:03;;;;;;;4.97;3.98;;;;;;;15.26;40.41;101688.19;1740233;82;25695;-74
2022/01/23 10:57:36;;;;;;;6.33;4.45;;;;;;;15.50;38.04;101691.21;1740636;82;25645;-75
2022/01/23 11:00:09;;;;;;;4.87;3.90;;;;;;;15.97;38.27;101686.83;1747615;82;25742;-75
2022/01/23 11:02:43;;;;;;;4.75;3.77;;;;;;;16.18;37.20;101689.30;1747898;82;25756;-75
2022/01/23 11:05:14;;;;;;;6.72;4.17;;;;;;;16.91;37.27;101678.61;1747816;82;27565;-75
2022/01/23 11:07:44;;;;;;;4.78;3.83;;;;;;;17.59;36.52;101683.63;1744499;82;25347;-72
2022/01/23 11:10:18;;;;;;;5.10;3.72;;;;;;;18.08;35.53;101685.05;1747707;82;25622;-76
2022/01/23 11:18:18;;;;;;;8.75;5.28;;;;;;;18.26;33.58;101676.20;1722760;82;28287;-75
2022/01/23 11:20:52;;;;;;;5.45;4.00;;;;;;;18.57;33.12;101682.53;1747753;82;25717;-77
2022/01/23 11:23:28;;;;;;;4.90;3.52;;;;;;;18.40;32.38;101687.52;1738651;80;25792;-77
2022/01/23 11:26:05;;;;;;;8.60;4.85;;;;;;;18.39;32.45;101685.90;1766383;80;25744;-78
2022/01/23 11:28:44;;;;;;;16.30;7.67;;;;;;;18.59;32.35;101690.67;1730941;81;25681;-76
2022/01/23 11:31:14;;;;;;;;;;;;;;;18.47;31.38;101691.37;1729498;83;27472;-80
2022/01/23 11:33:41;;;;;;;5.55;4.55;;;;;;;18.26;31.40;101692.64;1757001;80;25748;-78
2022/01/23 11:36:08;;;;;;;6.70;4.47;;;;;;;18.28;32.06;101692.31;1756903;81;25625;-76
2022/01/23 11:38:36;;;;;;;61.33;37.48;;;;;;;18.26;31.55;101700.85;1757060;81;26020;-76
2022/01/23 11:55:10;;;;;;;6.12;4.28;;;;;;;16.68;32.23;101704.61;1768528;81;25229;-73
2022/01/23 11:57:44;;;;;;;10.30;6.65;;;;;;;16.44;32.64;101709.09;1727746;81;28662;-72
2022/01/23 12:00:20;;;;;;;6.33;4.00;;;;;;;16.42;32.41;101719.53;1768240;80;25665;-76
2022/01/23 12:03:13;;;;;;;7.12;4.20;;;;;;;16.44;33.68;101711.26;1683202;80;1977305;-75
2022/01/23 12:05:44;;;;;;;6.80;4.35;;;;;;;16.38;32.81;101710.38;1694170;84;26049;-76
2022/01/23 12:08:36;;;;;;;7.55;4.90;;;;;;;16.25;32.13;101707.96;1724553;83;25283;-72
2022/01/23 12:11:38;;;;;;;4.87;3.72;;;;;;;15.77;32.23;101715.45;1724604;83;27459;-72
2022/01/23 12:17:00;;;;;;;5.72;3.87;;;;;;;14.32;31.66;101718.91;1712379;83;25528;-78
2022/01/23 12:19:31;;;;;;;5.60;3.45;;;;;;;13.92;32.18;101717.11;1710867;83;25297;-75
2022/01/23 12:22:19;;;;;;;6.72;3.95;;;;;;;13.80;32.73;101720.85;1711457;83;25701;-77
2022/01/23 12:24:52;;;;;;;6.05;3.80;;;;;;;13.87;33.32;101722.64;1724636;83;28147;-75
2022/01/23 12:27:27;;;;;;;5.22;3.65;;;;;;;13.90;32.97;101729.41;1724532;83;25710;-76
2022/01/23 12:30:15;;;;;;;5.40;3.27;;;;;;;13.79;33.08;101724.66;1724827;83;25313;-74
2022/01/23 12:32:42;;;;;;;6.25;3.47;;;;;;;13.74;32.68;101730.18;1724777;83;25708;-74
2022/01/23 12:35:10;;;;;;;6.05;3.80;;;;;;;13.34;32.48;101730.48;1724688;83;25316;-75
2022/01/23 12:37:59;;;;;;;7.15;4.00;;;;;;;13.15;34.12;101731.78;1724624;83;27533;-73
2022/01/23 12:40:34;;;;;;;5.12;3.50;;;;;;;13.25;33.66;101737.65;1725755;82;25771;-74
2022/01/23 12:43:17;;;;;;;4.35;3.08;;;;;;;13.39;34.37;101749.43;1751139;82;25295;-76
2022/01/23 12:45:58;;;;;;;5.17;3.35;;;;;;;13.27;34.14;101747.11;1751490;82;25477;-75
2022/01/23 12:48:36;;;;;;;7.10;4.03;;;;;;;13.31;34.43;101756.05;1757325;81;25601;-75
2022/01/23 12:51:17;;;;;;;5.03;3.55;;;;;;;13.15;33.07;101758.16;1756399;81;28274;-75
2022/01/23 12:53:52;;;;;;;6.60;4.22;;;;;;;12.83;33.53;101761.75;1756699;81;25580;-74
2022/01/23 12:56:30;;;;;;;5.25;3.55;;;;;;;12.84;33.26;101763.38;1756901;81;25302;-72
2022/01/23 12:59:10;;;;;;;4.58;3.30;;;;;;;12.67;32.92;101767.90;1756840;81;25652;-74
2022/01/23 13:01:38;;;;;;;7.35;3.92;;;;;;;12.74;33.10;101770.28;1756861;81;26088;-75
2022/01/23 13:04:08;;;;;;;;;;;;;;;12.89;33.50;101773.39;1759372;81;27606;-75
2022/01/23 13:06:50;;;;;;;5.00;3.40;;;;;;;12.95;32.82;101765.42;1756812;81;25679;-75
2022/01/23 13:12:28;;;;;;;4.95;2.95;;;;;;;12.86;33.19;101765.81;1645328;85;54914;-75
2022/01/23 13:14:57;;;;;;;5.22;2.52;;;;;;;12.81;32.75;101772.09;1669850;85;25755;-75
2022/01/23 13:17:41;;;;;;;5.85;3.40;;;;;;;12.70;32.91;101776.83;1668504;85;27457;-74
2022/01/23 13:31:08;;;;;;;4.75;3.62;;;;;;;12.56;32.59;101795.42;1672332;85;27567;-74
2022/01/23 13:33:29;;;;;;;5.50;3.22;;;;;;;12.44;32.80;101797.16;1715165;83;25683;-75
2022/01/23 13:35:55;;;;;;;6.10;3.70;;;;;;;12.32;32.49;101798.88;1670734;85;25825;-75
2022/01/23 13:38:23;;;;;;;4.08;3.12;;;;;;;12.19;32.80;101798.17;1714865;83;25610;-74
2022/01/23 13:40:59;;;;;;;4.72;3.08;;;;;;;11.62;32.06;101799.05;1669831;85;25460;-74
2022/01/23 13:51:54;;;;;;;4.58;3.17;;;;;;;10.81;33.74;101793.63;1704774;84;25587;-74
2022/01/23 13:59:52;;;;;;;6.28;3.60;;;;;;;10.31;33.42;101797.98;1710682;83;25960;-74
2022/01/23 14:02:28;;;;;;;8.40;4.95;;;;;;;10.05;33.19;101808.78;1704992;84;25815;-74
2022/01/23 14:05:11;;;;;;;9.10;5.53;;;;;;;9.58;32.94;101808.39;1690837;84;26075;-74
2022/01/23 14:07:40;;;;;;;9.03;5.10;;;;;;;9.13;33.45;101807.38;1704648;84;25443;-74
2022/01/23 14:10:24;;;;;;;10.08;5.42;;;;;;;8.72;34.82;101809.03;1680072;81;50945;-72
2022/01/23 14:12:56;;;;;;;6.58;4.72;;;;;;;8.36;34.90;101805.48;1684451;84;25652;-73
2022/01/23 14:15:28;;;;;;;10.28;5.90;;;;;;;8.01;35.35;101819.44;1703622;84;25813;-75
2022/01/23 14:18:07;;;;;;;9.08;6.50;;;;;;;7.70;35.28;101815.08;1690664;84;26017;-73
2022/01/23 14:20:41;;;;;;;13.85;8.80;;;;;;;7.37;35.55;101813.32;1720924;83;25666;-73
2022/01/23 14:23:20;;;;;;;13.72;8.15;;;;;;;7.03;35.83;101812.90;1704825;84;27515;-73
2022/01/23 14:25:54;;;;;;;13.88;8.73;;;;;;;6.81;35.87;101822.27;1690815;84;25617;-72
2022/01/23 14:28:29;;;;;;;18.40;12.07;;;;;;;6.59;36.79;101822.19;1704964;84;25599;-72
2022/01/23 14:31:01;;;;;;;28.42;15.25;;;;;;;6.46;36.95;101829.23;1655183;85;25497;-72
2022/01/23 14:33:34;;;;;;;16.40;9.43;;;;;;;6.26;37.05;101831.03;1705187;84;25337;-73
2022/01/23 14:36:20;;;;;;;15.88;9.63;;;;;;;6.03;36.36;101839.50;1706901;84;27468;-73
2022/01/23 14:39:04;;;;;;;13.95;8.65;;;;;;;5.71;36.16;101843.16;1706834;84;25558;-72
2022/01/23 14:41:35;;;;;;;24.57;15.78;;;;;;;5.27;36.54;101840.09;1706993;84;25462;-71
2022/01/23 14:44:20;;;;;;;19.25;12.88;;;;;;;4.88;36.42;101837.07;1707201;84;25569;-73
2022/01/23 14:46:52;;;;;;;17.95;11.03;;;;;;;4.47;36.50;101847.09;1702986;81;25677;-72
2022/01/23 14:49:23;;;;;;;14.53;7.67;;;;;;;4.09;37.08;101854.16;1735747;82;28209;-72
2022/01/23 14:51:51;;;;;;;13.18;8.40;;;;;;;3.73;37.13;101850.50;1709631;82;25856;-71
2022/01/23 14:54:20;;;;;;;9.23;5.80;;;;;;;3.40;37.60;101849.54;1736096;82;25938;-74